Time;durP1;ratioP1;P1;durP2;ratioP2;P2;SDS_P1;SDS_P2;PMS_P1;PMS_P2;Temp;Humidity;BMP_temperature;BMP_pressure;BME280_temperature;BME280_humidity;BME280_pressure;Samples;Min_cycle;Max_cycle;Signal;HPM_P1;HPM_P2
2024/01/04 00:01:11;;;;;;;1.90;1.40;;;;;;;9.34;99.10;97884.60;183183;1234;45890;-80
2024/01/04 00:05:13;;;;;;;1.10;0.50;;;;;;;9.32;99.65;97886.55;182877;1233;46084;-81
2024/01/04 00:09:15;;;;;;;3.10;1.00;;;;;;;9.31;99.99;97883.86;182931;1235;44689;-81
2024/01/04 00:13:17;;;;;;;0.80;0.30;;;;;;;9.34;100.00;97885.17;183201;1231;46097;-81
2024/01/04 00:17:19;;;;;;;2.80;1.30;;;;;;;9.38;100.00;97882.25;183596;1235;59912;-82
2024/01/04 00:21:21;;;;;;;4.70;1.90;;;;;;;9.38;99.96;97882.34;183246;1235;44788;-81
2024/01/04 00:25:22;;;;;;;1.70;1.30;;;;;;;9.38;99.99;97877.58;184353;1231;45011;-81
2024/01/04 00:29:24;;;;;;;2.80;1.00;;;;;;;9.41;100.00;97874.10;184077;1233;46263;-81
2024/01/04 00:33:26;;;;;;;3.60;1.60;;;;;;;9.43;100.00;97879.98;183712;1235;45123;-81
2024/01/04 00:37:28;;;;;;;3.40;0.70;;;;;;;9.46;100.00;97878.15;182589;1232;58709;-81
2024/01/04 00:41:30;;;;;;;2.10;0.60;;;;;;;9.51;100.00;97877.91;183090;1231;45957;-81
2024/01/04 00:45:32;;;;;;;1.00;0.60;;;;;;;9.57;100.00;97878.59;182681;1231;46084;-81
2024/01/04 00:49:34;;;;;;;1.00;0.80;;;;;;;9.66;100.00;97878.45;182349;1235;46073;-81
2024/01/04 00:53:35;;;;;;;1.10;0.50;;;;;;;9.71;100.00;97878.70;183697;1231;46034;-81
2024/01/04 00:57:37;;;;;;;2.10;0.80;;;;;;;9.76;100.00;97881.14;183508;1231;60008;-81
2024/01/04 01:01:39;;;;;;;2.90;0.80;;;;;;;9.84;100.00;97882.17;182411;1231;46084;-82
2024/01/04 01:05:41;;;;;;;1.10;0.60;;;;;;;9.90;100.00;97884.56;182996;1231;45919;-82
2024/01/04 01:09:43;;;;;;;0.90;0.40;;;;;;;9.95;100.00;97883.20;183304;1231;46084;-82
2024/01/04 01:13:45;;;;;;;2.80;0.80;;;;;;;9.99;99.84;97883.98;183714;1232;46185;-82
2024/01/04 01:17:46;;;;;;;1.90;0.70;;;;;;;10.05;99.59;97891.15;183014;1235;58549;-81
2024/01/04 01:21:48;;;;;;;0.70;0.70;;;;;;;10.06;98.46;97891.83;183226;1231;45135;-81
2024/01/04 01:25:50;;;;;;;1.30;0.90;;;;;;;10.11;97.98;97892.86;182267;1231;45973;-82
2024/01/04 01:29:52;;;;;;;2.50;0.90;;;;;;;10.12;97.71;97896.44;183275;1231;45953;-82
2024/01/04 01:33:54;;;;;;;2.10;0.70;;;;;;;10.09;97.54;97894.67;182640;1235;44124;-82
2024/01/04 01:37:56;;;;;;;0.90;0.50;;;;;;;10.10;97.88;97898.81;182750;1236;57892;-82
2024/01/04 01:41:58;;;;;;;0.60;0.40;;;;;;;10.12;98.07;97902.25;183442;1235;45307;-81
2024/01/04 01:46:00;;;;;;;0.60;0.10;;;;;;;10.16;97.94;97905.04;182787;1232;46101;-82
2024/01/04 01:50:02;;;;;;;0.50;0.20;;;;;;;10.18;98.40;97907.54;183294;1232;45957;-82
2024/01/04 01:54:04;;;;;;;0.70;0.30;;;;;;;10.19;98.34;97907.52;184390;1231;44456;-81
2024/01/04 01:58:06;;;;;;;1.10;0.20;;;;;;;10.19;98.01;97911.44;183469;1231;59616;-81
2024/01/04 02:02:08;;;;;;;2.00;0.20;;;;;;;10.23;97.76;97915.43;183606;1231;46644;-81
2024/01/04 02:06:10;;;;;;;1.10;0.20;;;;;;;10.25;97.35;97918.73;183372;1231;44354;-81
2024/01/04 02:10:13;;;;;;;0.20;0.10;;;;;;;10.26;98.47;97923.00;183926;1233;46110;-82
2024/01/04 02:14:14;;;;;;;0.70;0.20;;;;;;;10.21;99.62;97918.30;183270;1231;45970;-81
2024/01/04 02:18:17;;;;;;;1.00;0.50;;;;;;;10.19;100.00;97924.53;183912;1231;58096;-81
2024/01/04 02:22:18;;;;;;;0.70;0.30;;;;;;;10.07;100.00;97926.61;182794;1231;45945;-81
2024/01/04 02:26:20;;;;;;;0.30;0.30;;;;;;;9.98;100.00;97934.61;182776;1232;45910;-81
2024/01/04 02:30:22;;;;;;;0.30;0.20;;;;;;;9.83;100.00;97934.85;182115;1231;46139;-81
2024/01/04 02:34:24;;;;;;;1.00;0.30;;;;;;;9.73;100.00;97940.80;183470;1231;46084;-81
2024/01/04 02:38:26;;;;;;;0.80;0.60;;;;;;;9.63;100.00;97932.09;182835;1231;58003;-81
2024/01/04 02:42:29;;;;;;;1.10;0.30;;;;;;;9.54;100.00;97934.17;183960;1231;46046;-81
2024/01/04 02:46:31;;;;;;;0.40;0.30;;;;;;;9.53;100.00;97936.75;182284;1231;45943;-82
2024/01/04 02:50:33;;;;;;;4.50;0.60;;;;;;;9.46;100.00;97935.27;182978;1231;45997;-82
2024/01/04 02:54:35;;;;;;;0.50;0.10;;;;;;;9.43;100.00;97932.86;183651;1231;45889;-82
2024/01/04 02:58:37;;;;;;;0.70;0.30;;;;;;;9.41;100.00;97930.31;183708;1231;58161;-81
2024/01/04 03:02:38;;;;;;;0.60;0.20;;;;;;;9.39;100.00;97928.41;183427;1231;46100;-81
2024/01/04 03:06:41;;;;;;;0.40;0.20;;;;;;;9.37;100.00;97932.03;182835;1232;46189;-81
2024/01/04 03:10:42;;;;;;;0.80;0.60;;;;;;;9.37;100.00;97933.56;183067;1231;46101;-81
2024/01/04 03:14:44;;;;;;;0.50;0.20;;;;;;;9.38;100.00;97934.22;183473;1235;44075;-81
2024/01/04 03:18:46;;;;;;;0.90;0.20;;;;;;;9.39;100.00;97939.34;183362;1231;59584;-81
2024/01/04 03:22:49;;;;;;;0.50;0.30;;;;;;;9.42;100.00;97939.08;183697;1231;45230;-82
2024/01/04 03:26:50;;;;;;;2.30;0.60;;;;;;;9.43;100.00;97939.63;185688;1231;45776;-82
2024/01/04 03:30:52;;;;;;;0.50;0.20;;;;;;;9.45;100.00;97940.64;183852;1231;45997;-81
2024/01/04 03:34:54;;;;;;;0.60;0.20;;;;;;;9.42;100.00;97938.87;183549;1231;46067;-81
2024/01/04 03:38:57;;;;;;;1.90;0.50;;;;;;;9.51;100.00;97941.37;183870;1231;57729;-81
2024/01/04 03:42:59;;;;;;;5.90;0.30;;;;;;;9.56;100.00;97944.48;183115;1231;46050;-82
2024/01/04 03:47:01;;;;;;;1.80;0.40;;;;;;;9.60;100.00;97947.14;183250;1231;46085;-81
2024/01/04 03:51:03;;;;;;;0.50;0.30;;;;;;;9.60;100.00;97946.86;183700;1232;46058;-81
2024/01/04 03:55:05;;;;;;;0.30;0.10;;;;;;;9.56;100.00;97952.44;184269;1231;44200;-81
2024/01/04 03:59:07;;;;;;;0.10;0.10;;;;;;;9.56;100.00;97951.81;182976;1235;58102;-81
2024/01/04 04:03:09;;;;;;;1.50;0.30;;;;;;;9.58;100.00;97951.69;184233;1231;46180;-80
2024/01/04 04:07:11;;;;;;;0.30;0.30;;;;;;;9.56;100.00;97952.23;184545;1231;43936;-81
2024/01/04 04:11:19;;;;;;;0.80;0.30;;;;;;;9.56;100.00;97947.17;184769;1231;44272;-81
2024/01/04 04:15:21;;;;;;;0.90;0.30;;;;;;;9.56;100.00;97952.80;184461;1231;46096;-83
2024/01/04 04:19:23;;;;;;;0.50;0.40;;;;;;;9.52;100.00;97952.44;184415;1231;59268;-83
2024/01/04 04:23:25;;;;;;;1.10;0.30;;;;;;;9.51;100.00;97954.86;183330;1231;45979;-83
2024/01/04 04:27:26;;;;;;;0.20;0.20;;;;;;;9.49;100.00;97955.65;182889;1231;45946;-82
2024/01/04 04:31:28;;;;;;;3.00;0.20;;;;;;;9.51;100.00;97957.35;183336;1235;46135;-83
2024/01/04 04:35:30;;;;;;;0.50;0.40;;;;;;;9.54;100.00;97959.42;183635;1235;45957;-81
2024/01/04 04:39:31;;;;;;;0.30;0.10;;;;;;;9.54;100.00;97953.82;184051;1231;58563;-82
2024/01/04 04:43:34;;;;;;;0.30;0.30;;;;;;;9.52;100.00;97959.43;184097;1231;46093;-83
2024/01/04 04:47:36;;;;;;;0.20;0.20;;;;;;;9.47;100.00;97955.16;184428;1231;46014;-83
2024/01/04 04:51:38;;;;;;;0.30;0.20;;;;;;;9.52;100.00;97962.98;182710;1232;45994;-81
2024/01/04 04:55:40;;;;;;;0.30;0.10;;;;;;;9.53;100.00;97965.21;182880;1231;46109;-82
2024/01/04 04:59:41;;;;;;;0.50;0.30;;;;;;;9.60;100.00;97968.91;183324;1235;59271;-83
2024/01/04 05:03:43;;;;;;;0.30;0.20;;;;;;;9.61;100.00;97970.73;183176;1235;46009;-83
2024/01/04 05:07:48;;;;;;;1.40;0.30;;;;;;;9.62;100.00;97967.10;182904;1231;45992;-83
2024/01/04 05:11:50;;;;;;;0.30;0.30;;;;;;;9.60;100.00;97966.74;182853;1236;46123;-83
2024/01/04 05:15:51;;;;;;;0.90;0.40;;;;;;;9.55;100.00;97968.04;183368;1231;46020;-83
2024/01/04 05:19:53;;;;;;;0.90;0.30;;;;;;;9.49;100.00;97966.10;183234;1231;59194;-83
2024/01/04 05:23:55;;;;;;;3.90;1.00;;;;;;;9.43;100.00;97969.38;183143;1234;46080;-84
2024/01/04 05:27:58;;;;;;;0.80;0.50;;;;;;;9.40;100.00;97966.90;183561;1231;46061;-83
2024/01/04 05:31:59;;;;;;;0.70;0.70;;;;;;;9.41;100.00;97970.68;183148;1235;45992;-83
2024/01/04 05:36:01;;;;;;;0.60;0.20;;;;;;;9.46;100.00;97971.35;182969;1235;45920;-84
2024/01/04 05:40:03;;;;;;;0.70;0.50;;;;;;;9.46;100.00;97972.88;182774;1231;57955;-84
2024/01/04 05:44:06;;;;;;;0.30;0.30;;;;;;;9.49;100.00;97978.64;182809;1232;46084;-83
2024/01/04 05:48:08;;;;;;;0.30;0.20;;;;;;;9.50;100.00;97981.14;182951;1231;46883;-83
2024/01/04 05:52:10;;;;;;;0.20;0.20;;;;;;;9.50;100.00;97976.85;183475;1232;45960;-84
2024/01/04 05:56:11;;;;;;;0.30;0.20;;;;;;;9.50;100.00;97977.55;182915;1231;46008;-83
2024/01/04 06:00:13;;;;;;;0.80;0.20;;;;;;;9.51;100.00;97982.44;183765;1236;58465;-83
2024/01/04 06:04:19;;;;;;;0.40;0.10;;;;;;;9.47;100.00;97978.77;183451;1231;46110;-83
2024/01/04 06:08:21;;;;;;;3.60;0.30;;;;;;;9.42;100.00;97977.42;183808;1232;46055;-83
2024/01/04 06:12:23;;;;;;;1.60;0.50;;;;;;;9.40;100.00;97986.51;183118;1235;44907;-83
2024/01/04 06:16:24;;;;;;;1.70;0.70;;;;;;;9.37;100.00;97986.83;183313;1231;45976;-84
2024/01/04 06:20:26;;;;;;;0.50;0.20;;;;;;;9.35;100.00;97998.09;183281;1235;59630;-83
2024/01/04 06:24:28;;;;;;;0.60;0.30;;;;;;;9.34;100.00;97999.08;182825;1236;46044;-83
2024/01/04 06:28:30;;;;;;;1.10;0.30;;;;;;;9.32;100.00;98005.23;183319;1233;46023;-84
2024/01/04 06:32:31;;;;;;;0.80;0.60;;;;;;;9.31;100.00;98004.90;183535;1232;45961;-84
2024/01/04 06:36:33;;;;;;;1.10;0.20;;;;;;;9.30;100.00;98013.66;182612;1231;45957;-84
2024/01/04 06:40:35;;;;;;;0.50;0.10;;;;;;;9.21;100.00;98014.80;183378;1231;59511;-84
2024/01/04 06:44:37;;;;;;;0.50;0.40;;;;;;;9.20;100.00;98016.29;183059;1231;45969;-84
2024/01/04 06:48:48;;;;;;;0.40;0.30;;;;;;;9.26;100.00;98023.09;182995;1231;46218;-84
2024/01/04 06:52:50;;;;;;;2.20;0.40;;;;;;;9.30;100.00;98031.55;182787;1236;45968;-84
2024/01/04 06:56:52;;;;;;;0.70;0.50;;;;;;;9.35;100.00;98034.90;182822;1231;46072;-84
2024/01/04 07:00:53;;;;;;;0.10;0.10;;;;;;;9.34;100.00;98030.52;183049;1235;59406;-84
2024/01/04 07:04:55;;;;;;;0.30;0.20;;;;;;;9.37;100.00;98040.92;182841;1231;46068;-84
2024/01/04 07:08:57;;;;;;;1.60;0.20;;;;;;;9.39;100.00;98047.48;183275;1233;46115;-84
2024/01/04 07:12:58;;;;;;;0.10;0.10;;;;;;;9.39;100.00;98056.30;182709;1231;46289;-84
2024/01/04 07:17:00;;;;;;;1.40;0.30;;;;;;;9.36;100.00;98056.59;182705;1235;46611;-84
2024/01/04 07:21:02;;;;;;;0.50;0.50;;;;;;;9.42;100.00;98055.98;183221;1231;58412;-84
2024/01/04 07:25:04;;;;;;;0.10;0.00;;;;;;;9.43;100.00;98055.19;183065;1231;45970;-83
2024/01/04 07:29:06;;;;;;;0.10;0.10;;;;;;;9.37;100.00;98054.91;182845;1231;46086;-83
2024/01/04 07:33:08;;;;;;;1.50;0.60;;;;;;;9.33;100.00;98060.84;182807;1231;44797;-84
2024/01/04 07:37:09;;;;;;;0.50;0.10;;;;;;;9.30;100.00;98071.67;182785;1236;45976;-84
2024/01/04 07:41:11;;;;;;;0.60;0.10;;;;;;;9.23;100.00;98070.66;183151;1231;59821;-84
2024/01/04 07:45:13;;;;;;;0.30;0.20;;;;;;;9.19;100.00;98072.09;183032;1235;46007;-84
2024/01/04 07:49:15;;;;;;;0.40;0.10;;;;;;;9.10;100.00;98075.12;182771;1231;46080;-84
2024/01/04 07:53:17;;;;;;;0.50;0.30;;;;;;;8.99;100.00;98083.04;182859;1235;45969;-84
2024/01/04 07:57:18;;;;;;;0.70;0.40;;;;;;;8.89;100.00;98085.82;182753;1231;46327;-83
2024/01/04 08:01:20;;;;;;;0.80;0.20;;;;;;;8.77;100.00;98082.42;182985;1231;57818;-84
2024/01/04 08:05:22;;;;;;;0.70;0.20;;;;;;;8.72;100.00;98081.83;182880;1232;46059;-83
2024/01/04 08:09:24;;;;;;;0.60;0.40;;;;;;;8.65;100.00;98086.85;182721;1231;46077;-84
2024/01/04 08:13:25;;;;;;;0.70;0.50;;;;;;;8.59;100.00;98094.44;182894;1232;46155;-84
2024/01/04 08:17:27;;;;;;;1.90;0.60;;;;;;;8.56;100.00;98098.73;183077;1237;45954;-84
2024/01/04 08:21:29;;;;;;;1.80;0.30;;;;;;;8.60;100.00;98098.88;183064;1236;58949;-84
2024/01/04 08:25:31;;;;;;;1.30;0.30;;;;;;;8.61;100.00;98100.91;182951;1235;46077;-84
2024/01/04 08:29:33;;;;;;;1.00;0.60;;;;;;;8.62;100.00;98105.60;183169;1232;46187;-84
2024/01/04 08:33:34;;;;;;;2.20;0.30;;;;;;;8.65;100.00;98108.58;182601;1231;45969;-84
2024/01/04 08:37:36;;;;;;;1.70;0.50;;;;;;;8.68;100.00;98114.77;184439;1238;44144;-84
2024/01/04 08:41:38;;;;;;;0.30;0.30;;;;;;;8.69;100.00;98126.01;182985;1236;60058;-84
2024/01/04 08:45:40;;;;;;;4.00;1.00;;;;;;;8.70;100.00;98129.95;183456;1231;46024;-84
2024/01/04 08:49:41;;;;;;;1.50;0.50;;;;;;;8.69;100.00;98130.08;183225;1234;46070;-84
2024/01/04 08:53:44;;;;;;;2.80;0.70;;;;;;;8.72;100.00;98137.70;183058;1231;46082;-84
2024/01/04 08:57:46;;;;;;;2.50;1.80;;;;;;;8.79;100.00;98146.87;182925;1232;46053;-83
2024/01/04 09:01:48;;;;;;;2.00;0.90;;;;;;;8.85;100.00;98151.36;182969;1236;58505;-84
2024/01/04 09:05:50;;;;;;;1.00;0.90;;;;;;;8.89;100.00;98155.39;183804;1232;46058;-84
2024/01/04 09:09:52;;;;;;;2.20;1.30;;;;;;;8.96;100.00;98170.86;183056;1232;45870;-84
2024/01/04 09:13:54;;;;;;;0.90;0.40;;;;;;;9.02;100.00;98178.16;182576;1232;46093;-83
2024/01/04 09:17:56;;;;;;;2.10;1.00;;;;;;;9.04;100.00;98178.49;182846;1232;45969;-83
2024/01/04 09:21:58;;;;;;;0.80;0.60;;;;;;;8.97;100.00;98180.59;183053;1231;58065;-83
2024/01/04 09:26:08;;;;;;;0.80;0.50;;;;;;;8.92;100.00;98174.23;182958;1232;46061;-84
2024/01/04 09:30:10;;;;;;;1.50;0.70;;;;;;;8.91;100.00;98180.92;182756;1231;45993;-84
2024/01/04 09:34:12;;;;;;;0.70;0.20;;;;;;;8.90;100.00;98182.65;182616;1232;45936;-86
2024/01/04 09:38:14;;;;;;;1.00;0.10;;;;;;;8.92;100.00;98190.01;183281;1232;46075;-82
2024/01/04 09:42:17;;;;;;;0.40;0.40;;;;;;;8.92;100.00;98187.20;182780;1236;57883;-83
2024/01/04 09:46:21;;;;;;;0.50;0.30;;;;;;;8.94;100.00;98187.33;182801;1232;45965;-84
2024/01/04 09:50:23;;;;;;;3.30;0.60;;;;;;;8.93;100.00;98189.02;183151;1234;44475;-84
2024/01/04 09:54:29;;;;;;;0.30;0.30;;;;;;;8.96;100.00;98193.62;182518;1232;46117;-84
2024/01/04 09:58:30;;;;;;;1.20;0.40;;;;;;;9.02;100.00;98186.28;182899;1231;46103;-84
2024/01/04 10:02:35;;;;;;;1.10;0.80;;;;;;;9.06;100.00;98184.27;182853;1231;59099;-84
2024/01/04 10:06:38;;;;;;;0.40;0.40;;;;;;;9.11;100.00;98189.35;182925;1232;45942;-84
2024/01/04 10:10:40;;;;;;;0.40;0.40;;;;;;;9.17;100.00;98185.17;182473;1237;305183;-83
2024/01/04 10:14:42;;;;;;;0.90;0.30;;;;;;;9.28;100.00;98183.86;183687;1236;46100;-84
2024/01/04 10:18:44;;;;;;;1.40;0.60;;;;;;;9.37;100.00;98178.59;183014;1231;44370;-83
2024/01/04 10:22:47;;;;;;;0.40;0.40;;;;;;;9.55;100.00;98180.88;182933;1232;58086;-83
2024/01/04 10:27:00;;;;;;;2.40;1.20;;;;;;;9.76;100.00;98175.52;182628;1232;46076;-83
2024/01/04 10:31:03;;;;;;;1.30;0.40;;;;;;;9.95;100.00;98174.63;183056;1232;46071;-83
2024/01/04 10:35:08;;;;;;;0.70;0.50;;;;;;;9.99;100.00;98182.30;182830;1232;46095;-82
2024/01/04 10:39:10;;;;;;;2.00;0.70;;;;;;;9.99;100.00;98183.80;182699;1233;46063;-83
2024/01/04 10:43:19;;;;;;;1.70;0.60;;;;;;;9.99;100.00;98178.12;183139;1232;58208;-84
2024/01/04 10:47:21;;;;;;;1.10;0.80;;;;;;;9.88;100.00;98179.65;183323;1231;45994;-84
2024/01/04 10:51:26;;;;;;;1.00;0.50;;;;;;;9.82;100.00;98187.73;183145;1236;45024;-84
2024/01/04 10:55:28;;;;;;;0.70;0.50;;;;;;;9.79;100.00;98182.42;183153;1232;46087;-84
2024/01/04 10:59:34;;;;;;;0.80;0.80;;;;;;;9.81;100.00;98179.24;183171;1236;46008;-84
2024/01/04 11:03:37;;;;;;;1.60;1.00;;;;;;;9.86;100.00;98176.73;183394;1232;57992;-84
2024/01/04 11:07:39;;;;;;;4.90;1.00;;;;;;;9.84;100.00;98163.27;182853;1236;45972;-84
2024/01/04 11:11:43;;;;;;;4.10;0.70;;;;;;;9.90;100.00;98161.05;182935;1232;46007;-84
2024/01/04 11:15:51;;;;;;;2.00;0.90;;;;;;;9.99;100.00;98162.84;183080;1232;46059;-83
2024/01/04 11:20:22;;;;;;;3.20;0.70;;;;;;;9.97;100.00;98153.40;183113;1232;46072;-83
2024/01/04 11:25:16;;;;;;;1.30;0.40;;;;;;;9.97;100.00;98145.04;183140;1232;57783;-83
2024/01/04 11:29:19;;;;;;;2.30;0.30;;;;;;;10.00;99.97;98141.27;182196;1241;46202;-83
2024/01/04 11:33:27;;;;;;;1.20;0.40;;;;;;;10.01;99.77;98141.44;182061;1239;46008;-83
2024/01/04 11:37:32;;;;;;;2.70;0.60;;;;;;;10.07;100.00;98151.57;181675;1241;46115;-83
2024/01/04 11:41:35;;;;;;;1.10;0.30;;;;;;;10.11;100.00;98152.98;181895;1241;46215;-83
2024/01/04 11:45:42;;;;;;;1.60;0.90;;;;;;;10.12;99.42;98151.52;181607;1241;57206;-83
2024/01/04 11:49:47;;;;;;;0.60;0.40;;;;;;;10.10;99.13;98159.30;182144;1241;44683;-84
2024/01/04 11:54:01;;;;;;;1.20;0.50;;;;;;;10.10;99.24;98159.64;181600;1244;46017;-83
2024/01/04 11:58:08;;;;;;;1.20;0.90;;;;;;;10.08;98.82;98161.52;181808;1241;46180;-83
2024/01/04 12:02:21;;;;;;;1.70;1.10;;;;;;;10.04;100.00;98154.86;181923;1240;44348;-84
2024/01/04 12:06:23;;;;;;;1.80;0.40;;;;;;;9.92;100.00;98169.14;182719;1232;57967;-84
2024/01/04 12:10:25;;;;;;;1.50;0.60;;;;;;;9.40;100.00;98185.48;182716;1232;46205;-83
2024/01/04 12:14:26;;;;;;;4.30;1.70;;;;;;;8.64;100.00;98216.22;183203;1232;46083;-84
2024/01/04 12:18:30;;;;;;;0.20;0.20;;;;;;;8.09;100.00;98221.20;182710;1232;45962;-84
2024/01/04 12:22:32;;;;;;;0.90;0.40;;;;;;;7.79;100.00;98225.86;182772;1231;46004;-84
2024/01/04 12:26:34;;;;;;;1.00;0.50;;;;;;;7.67;100.00;98239.79;182961;1235;58061;-84
2024/01/04 12:30:36;;;;;;;1.20;0.80;;;;;;;7.60;100.00;98243.46;183096;1232;46100;-84
2024/01/04 12:34:43;;;;;;;0.40;0.30;;;;;;;7.57;100.00;98243.55;182602;1235;46172;-84
2024/01/04 12:38:45;;;;;;;1.50;0.50;;;;;;;7.57;100.00;98248.30;182655;1232;44521;-83
2024/01/04 12:42:46;;;;;;;0.50;0.50;;;;;;;7.52;100.00;98245.16;182379;1235;45889;-83
2024/01/04 12:46:48;;;;;;;1.40;1.00;;;;;;;7.59;100.00;98262.23;182375;1232;59884;-84
2024/01/04 12:50:50;;;;;;;3.60;3.30;;;;;;;7.60;100.00;98271.51;182961;1232;46119;-84
2024/01/04 12:54:52;;;;;;;2.00;0.90;;;;;;;7.56;100.00;98269.98;183040;1232;46529;-84
2024/01/04 12:58:56;;;;;;;2.10;1.90;;;;;;;7.59;100.00;98282.39;182938;1232;44786;-84
2024/01/04 13:02:57;;;;;;;1.80;1.70;;;;;;;7.56;100.00;98294.45;182947;1235;46657;-84
2024/01/04 13:07:00;;;;;;;1.90;0.90;;;;;;;7.38;100.00;98291.11;183115;1232;59152;-84
2024/01/04 13:11:03;;;;;;;0.80;0.50;;;;;;;7.30;100.00;98292.52;183190;1232;45994;-83
2024/01/04 13:15:07;;;;;;;0.60;0.20;;;;;;;7.22;100.00;98281.30;183197;1232;45995;-83
2024/01/04 13:19:11;;;;;;;0.40;0.40;;;;;;;7.14;100.00;98289.86;183063;1232;46021;-82
2024/01/04 13:23:14;;;;;;;0.20;0.20;;;;;;;7.05;100.00;98294.79;183180;1231;45891;-83
2024/01/04 13:27:17;;;;;;;0.70;0.50;;;;;;;6.84;100.00;98302.98;183309;1232;57777;-84
2024/01/04 13:31:19;;;;;;;0.40;0.20;;;;;;;6.75;100.00;98312.68;183165;1231;44085;-83
2024/01/04 13:35:21;;;;;;;0.30;0.20;;;;;;;6.70;100.00;98324.95;183078;1231;45958;-82
2024/01/04 13:39:23;;;;;;;0.40;0.20;;;;;;;6.57;100.00;98311.58;182998;1235;46132;-83
2024/01/04 13:43:25;;;;;;;0.30;0.20;;;;;;;6.45;100.00;98341.81;182909;1232;44989;-83
2024/01/04 13:47:26;;;;;;;1.00;0.60;;;;;;;6.33;100.00;98346.10;182942;1235;59899;-83
2024/01/04 13:51:30;;;;;;;0.90;0.20;;;;;;;6.22;100.00;98357.35;183005;1235;46057;-83
2024/01/04 13:55:32;;;;;;;0.50;0.30;;;;;;;6.23;100.00;98342.05;182748;1232;45941;-84
2024/01/04 13:59:33;;;;;;;2.00;0.60;;;;;;;6.20;100.00;98338.45;183288;1232;45966;-83
2024/01/04 14:03:35;;;;;;;0.40;0.30;;;;;;;6.13;100.00;98346.38;182978;1235;46055;-83
2024/01/04 14:07:37;;;;;;;0.50;0.20;;;;;;;6.08;100.00;98366.34;183096;1231;57913;-83
2024/01/04 14:11:39;;;;;;;0.70;0.30;;;;;;;6.09;100.00;98377.04;183409;1231;46008;-84
2024/01/04 14:15:43;;;;;;;0.90;0.90;;;;;;;6.10;100.00;98378.09;182919;1235;45948;-83
2024/01/04 14:19:46;;;;;;;0.90;0.40;;;;;;;6.06;100.00;98365.10;183035;1232;46187;-85
2024/01/04 14:23:48;;;;;;;0.60;0.60;;;;;;;6.11;100.00;98384.31;184367;1232;44149;-86
2024/01/04 14:27:50;;;;;;;0.90;0.80;;;;;;;6.03;100.00;98395.34;182786;1235;58130;-86
2024/01/04 14:31:52;;;;;;;0.50;0.40;;;;;;;5.85;100.00;98387.27;182959;1232;45987;-86
2024/01/04 14:35:56;;;;;;;1.50;1.00;;;;;;;5.75;100.00;98401.67;182893;1231;46049;-86
2024/01/04 14:39:59;;;;;;;0.60;0.50;;;;;;;5.80;100.00;98408.80;183203;1231;45998;-86
2024/01/04 14:44:01;;;;;;;1.70;1.10;;;;;;;5.82;100.00;98408.80;182574;1235;45960;-84
2024/01/04 14:48:05;;;;;;;1.10;0.70;;;;;;;5.81;100.00;98420.19;183057;1231;59540;-86
2024/01/04 14:52:12;;;;;;;0.90;0.70;;;;;;;5.99;100.00;98430.86;182566;1235;46440;-86
2024/01/04 14:56:17;;;;;;;0.90;0.90;;;;;;;5.95;100.00;98436.34;182645;1232;46920;-84
2024/01/04 15:00:19;;;;;;;1.00;0.80;;;;;;;5.97;100.00;98447.56;183108;1231;46242;-85
2024/01/04 15:04:23;;;;;;;0.80;0.80;;;;;;;5.84;100.00;98443.77;182875;1231;46001;-84
2024/01/04 15:08:27;;;;;;;1.10;1.00;;;;;;;5.87;100.00;98457.99;182744;1232;59806;-85
2024/01/04 15:12:29;;;;;;;1.90;0.90;;;;;;;5.67;100.00;98464.15;182988;1232;46091;-84
2024/01/04 15:16:31;;;;;;;2.10;1.40;;;;;;;5.74;100.00;98471.60;183470;1231;46071;-83
2024/01/04 15:20:33;;;;;;;1.80;0.70;;;;;;;5.75;100.00;98484.61;183672;1232;46373;-84
2024/01/04 15:24:36;;;;;;;1.30;1.10;;;;;;;5.59;100.00;98506.54;183139;1231;45980;-84
2024/01/04 15:28:38;;;;;;;1.60;1.50;;;;;;;5.60;100.00;98505.61;183244;1231;59263;-84
2024/01/04 15:32:39;;;;;;;1.60;1.40;;;;;;;5.50;100.00;98511.74;183189;1232;45982;-84
2024/01/04 15:36:41;;;;;;;6.00;1.20;;;;;;;5.39;100.00;98534.72;183553;1231;46071;-85
2024/01/04 15:40:44;;;;;;;2.10;1.20;;;;;;;5.21;100.00;98554.67;183378;1231;45930;-84
2024/01/04 15:44:47;;;;;;;1.20;0.60;;;;;;;5.11;100.00;98547.09;183441;1233;45966;-84
2024/01/04 15:48:48;;;;;;;0.70;0.60;;;;;;;5.09;100.00;98551.02;183140;1231;57345;-84
2024/01/04 15:52:50;;;;;;;1.20;1.10;;;;;;;5.03;100.00;98571.76;183107;1231;46098;-83
2024/01/04 15:56:52;;;;;;;1.40;0.70;;;;;;;4.96;100.00;98570.02;182963;1232;46067;-84
2024/01/04 16:00:54;;;;;;;1.70;0.70;;;;;;;4.93;100.00;98598.18;182578;1231;45996;-84
2024/01/04 16:04:56;;;;;;;5.90;2.20;;;;;;;4.88;100.00;98589.69;183124;1234;45975;-84
2024/01/04 16:08:58;;;;;;;1.00;0.80;;;;;;;4.83;100.00;98608.21;182731;1234;59394;-84
2024/01/04 16:13:00;;;;;;;1.90;0.90;;;;;;;4.85;100.00;98607.17;182596;1235;45967;-84
2024/01/04 16:17:03;;;;;;;1.50;1.20;;;;;;;4.85;100.00;98610.86;182694;1235;45963;-84
2024/01/04 16:21:10;;;;;;;1.00;0.70;;;;;;;4.79;100.00;98624.31;182385;1231;46010;-84
2024/01/04 16:25:12;;;;;;;2.30;1.20;;;;;;;4.61;100.00;98619.17;183450;1231;46122;-84
2024/01/04 16:29:14;;;;;;;1.20;0.60;;;;;;;4.58;100.00;98625.39;182865;1235;60097;-84
2024/01/04 16:33:16;;;;;;;1.20;0.70;;;;;;;4.56;100.00;98641.33;182717;1235;44351;-84
2024/01/04 16:37:18;;;;;;;1.80;1.20;;;;;;;4.56;100.00;98654.11;182896;1232;46010;-84
2024/01/04 16:41:20;;;;;;;1.20;1.10;;;;;;;4.54;100.00;98660.63;183077;1233;46001;-84
2024/01/04 16:45:22;;;;;;;2.60;1.80;;;;;;;4.53;100.00;98674.94;182615;1235;46005;-84
2024/01/04 16:49:24;;;;;;;1.50;1.30;;;;;;;4.52;100.00;98682.43;182855;1233;57945;-85
2024/01/04 16:53:25;;;;;;;1.40;1.20;;;;;;;4.47;100.00;98686.12;182308;1235;46083;-84
2024/01/04 16:57:27;;;;;;;3.00;0.90;;;;;;;4.39;100.00;98696.96;183081;1231;46067;-84
2024/01/04 17:01:29;;;;;;;1.30;1.00;;;;;;;4.25;100.00;98703.18;182505;1231;46428;-84
2024/01/04 17:05:31;;;;;;;1.90;0.90;;;;;;;4.22;100.00;98714.10;182955;1231;46061;-84
2024/01/04 17:09:33;;;;;;;2.70;1.20;;;;;;;4.20;100.00;98739.21;183007;1231;59449;-84
2024/01/04 17:13:44;;;;;;;2.40;0.50;;;;;;;4.13;100.00;98743.41;182890;1231;46040;-84
2024/01/04 17:17:53;;;;;;;8.30;2.60;;;;;;;4.13;100.00;98754.79;183539;1231;44264;-87
2024/01/04 17:21:55;;;;;;;1.90;0.80;;;;;;;4.17;100.00;98753.11;182856;1231;46142;-87
2024/01/04 17:25:58;;;;;;;1.30;0.80;;;;;;;4.18;100.00;98776.91;183202;1232;46442;-89
2024/01/04 17:30:01;;;;;;;0.80;0.80;;;;;;;4.22;100.00;98783.98;182704;1234;57896;-89
2024/01/04 17:34:03;;;;;;;2.80;1.10;;;;;;;4.29;100.00;98799.89;183395;1231;46068;-87
2024/01/04 17:38:06;;;;;;;1.10;1.00;;;;;;;4.33;100.00;98806.59;182774;1231;46001;-87
2024/01/04 17:42:10;;;;;;;1.40;0.90;;;;;;;4.29;100.00;98810.79;182978;1231;46116;-86
2024/01/04 17:46:15;;;;;;;1.30;1.20;;;;;;;4.27;100.00;98821.65;183237;1231;46048;-88
2024/01/04 17:50:17;;;;;;;2.70;1.30;;;;;;;4.20;100.00;98816.60;182950;1235;58029;-87
2024/01/04 17:54:20;;;;;;;1.40;1.20;;;;;;;4.18;100.00;98832.02;182836;1232;45924;-88
2024/01/04 17:58:22;;;;;;;1.30;1.10;;;;;;;4.15;100.00;98839.58;182765;1231;44380;-88
2024/01/04 18:02:25;;;;;;;1.50;1.10;;;;;;;4.05;100.00;98846.72;182727;1232;46104;-87
2024/01/04 18:06:28;;;;;;;1.90;1.30;;;;;;;4.00;100.00;98857.83;182775;1231;45888;-88
2024/01/04 18:10:31;;;;;;;1.00;1.00;;;;;;;3.96;100.00;98868.11;182763;1231;57910;-87
2024/01/04 18:14:33;;;;;;;3.20;2.00;;;;;;;3.95;100.00;98863.23;183067;1231;46201;-88
2024/01/04 18:18:37;;;;;;;1.60;1.50;;;;;;;3.95;100.00;98880.39;182782;1231;46104;-88
2024/01/04 18:22:40;;;;;;;1.40;1.30;;;;;;;3.92;100.00;98892.23;182836;1232;46503;-87
2024/01/04 18:26:43;;;;;;;2.10;1.00;;;;;;;3.89;100.00;98900.86;183092;1232;45977;-86
2024/01/04 18:30:45;;;;;;;4.30;1.20;;;;;;;3.89;100.00;98915.42;182629;1235;59856;-88
2024/01/04 18:34:48;;;;;;;1.60;1.50;;;;;;;3.88;100.00;98922.70;182993;1231;45960;-87
2024/01/04 18:38:51;;;;;;;3.30;1.60;;;;;;;3.78;100.00;98933.42;182981;1235;46075;-87
2024/01/04 18:43:07;;;;;;;1.30;1.20;;;;;;;3.76;100.00;98941.33;182925;1231;45991;-87
2024/01/04 18:47:10;;;;;;;3.70;1.20;;;;;;;3.77;100.00;98959.69;182951;1231;46169;-86